San Carmen — WSD2145 — position and weather

sailwx.info

Track history (hours):
 
Tides and Currents Weather Stations Pressure Air Temp Water Temp Dewpoint Dewpoint Depression Visibility Wind Speed Wind Dir Waves Ship Positions

San Carmen

Owner: BUFFALO MARINE SERVICE INC, HOUSTON, TX. More information available from US FCC via Universal Licensing System and Coast Guard Vessel Documentation Center.

Last reported at 2017-Oct-19 19:31 UTC. Time now 2017-Oct-20 04:59 UTC.
Position N 29°44' W 095°02'.

Length 20 m; draft 2.1 m.

Type: Tug. MMSI: 366941810.

Date/timePositionNaut miles runAvg speedWind from/ knotsBaromVisibWave heightAir tempDewpointWater temp
2017-Oct-19 19:31N 29°44' W 095°02'1 5.8
2017-Oct-19 19:24N 29°43' W 095°01'2 5.3
2017-Oct-19 19:00N 29°42' W 094°59'4 6.1
2017-Oct-19 18:24N 29°38' W 094°58'2 4.1
2017-Oct-19 18:01N 29°37' W 094°59'2 3.1
2017-Oct-19 17:31N 29°37' W 095°00'0 0.0
2017-Oct-19 17:01N 29°37' W 095°00'0 0.0
2017-Oct-19 16:30N 29°37' W 095°00'0 0.0
2017-Oct-19 16:01N 29°37' W 095°00'0 0.0
2017-Oct-19 15:31N 29°37' W 095°00'0 0.0
2017-Oct-19 15:01N 29°37' W 095°00'0 0.0
2017-Oct-19 14:31N 29°37' W 095°00'0 0.0
2017-Oct-19 14:01N 29°37' W 095°00'0 0.0
2017-Oct-19 13:31N 29°37' W 095°00'0 0.0
2017-Oct-19 13:00N 29°37' W 095°00'0 0.0
2017-Oct-19 12:31N 29°37' W 095°00'0 0.5
2017-Oct-19 12:00N 29°37' W 095°00'0 0.2
2017-Oct-19 11:31N 29°37' W 094°60'0 0.1
2017-Oct-19 11:00N 29°37' W 095°00'0 0.0
2017-Oct-19 10:31N 29°37' W 095°00'0 0.0
2017-Oct-19 10:00N 29°37' W 095°00'0 0.0
2017-Oct-19 09:30N 29°37' W 095°00'0 0.0
2017-Oct-19 09:01N 29°37' W 095°00'0 0.0
2017-Oct-19 08:31N 29°37' W 095°00'0 0.0
2017-Oct-19 08:00N 29°37' W 095°00'0 0.0
2017-Oct-19 07:30N 29°37' W 095°00'0 0.0
2017-Oct-19 07:00N 29°37' W 095°00'0 0.0
2017-Oct-19 06:30N 29°37' W 095°00'0 0.1
2017-Oct-19 06:00N 29°37' W 095°00'0 0.8
2017-Oct-19 05:30N 29°37' W 095°01'0 0.0
2017-Oct-19 05:00N 29°37' W 095°01'0 0.0
2017-Oct-19 04:30N 29°37' W 095°01'0 0.0
2017-Oct-19 04:00N 29°37' W 095°01'0 0.0
2017-Oct-19 03:30N 29°37' W 095°01'0 0.0
2017-Oct-19 03:00N 29°37' W 095°01'0 0.0
2017-Oct-19 02:30N 29°37' W 095°01'0 0.0
2017-Oct-19 02:01N 29°37' W 095°01'0 0.0
2017-Oct-19 01:30N 29°37' W 095°01'0 0.0
2017-Oct-19 01:00N 29°37' W 095°01'0 0.0
2017-Oct-19 00:31N 29°37' W 095°01'0 0.0
2017-Oct-19 00:00N 29°37' W 095°01'0 0.0
2017-Oct-18 23:30N 29°37' W 095°01'0 0.0
2017-Oct-18 23:00N 29°37' W 095°01'0 0.0
2017-Oct-18 22:31N 29°37' W 095°01'0 0.0
2017-Oct-18 22:00N 29°37' W 095°01'0 0.0
2017-Oct-18 21:30N 29°37' W 095°01'0 0.0
2017-Oct-18 21:00N 29°37' W 095°01'0 0.0
2017-Oct-18 20:30N 29°37' W 095°01'0 0.0
2017-Oct-18 20:01N 29°37' W 095°01'0 0.0
2017-Oct-18 19:30N 29°37' W 095°01'0 0.0
2017-Oct-18 19:00N 29°37' W 095°01'0 0.0
2017-Oct-18 18:31N 29°37' W 095°01'0 0.0
2017-Oct-18 18:00N 29°37' W 095°01'0 0.0
2017-Oct-18 17:30N 29°37' W 095°01'0 0.0
2017-Oct-18 17:00N 29°37' W 095°01'0 0.0
2017-Oct-18 16:30N 29°37' W 095°01'0 0.8
2017-Oct-18 16:00N 29°37' W 095°00'1 1.1
2017-Oct-18 15:30N 29°37' W 094°59'1 2.8
2017-Oct-18 14:59N 29°37' W 094°58'4 3.6
2017-Oct-18 14:00N 29°40' W 094°59'3 5.5
2017-Oct-18 13:30N 29°42' W 095°01'2 4.8
2017-Oct-18 13:00N 29°44' W 095°03'3 5.3
2017-Oct-18 12:30N 29°46' W 095°05'1 1.5
2017-Oct-18 11:46N 29°47' W 095°06'0 0.0
2017-Oct-18 05:13N 29°47' W 095°06'1 0.2
2017-Oct-17 23:16N 29°46' W 095°05'1 0.0
2017-Oct-17 05:28N 29°46' W 095°06'1 2.5
2017-Oct-17 04:57N 29°46' W 095°05'3 5.3
2017-Oct-17 04:28N 29°44' W 095°03'2 4.7
2017-Oct-17 04:00N 29°42' W 095°01'3 5.0
2017-Oct-17 03:26N 29°40' W 094°59'3 5.8
2017-Oct-17 03:00N 29°38' W 094°58'2 3.5
2017-Oct-17 02:30N 29°37' W 094°59'1 2.1
2017-Oct-17 02:00N 29°37' W 095°00'0 0.0
2017-Oct-17 01:30N 29°37' W 095°00'0 0.0
2017-Oct-17 01:00N 29°37' W 095°00'0 0.0
2017-Oct-17 00:30N 29°37' W 095°00'0 0.0
2017-Oct-17 00:00N 29°37' W 095°00'0 0.0
2017-Oct-16 23:30N 29°37' W 095°00'0 0.0
2017-Oct-16 23:00N 29°37' W 095°00'0 0.0
2017-Oct-16 22:30N 29°37' W 095°00'0 0.0
2017-Oct-16 22:00N 29°37' W 095°00'0 0.0
2017-Oct-16 21:30N 29°37' W 095°00'0 0.0
2017-Oct-16 21:00N 29°37' W 095°00'0 0.0
2017-Oct-16 20:30N 29°37' W 095°00'0 0.0
2017-Oct-16 20:00N 29°37' W 095°00'0 0.0
2017-Oct-16 19:30N 29°37' W 095°00'0 0.0
2017-Oct-16 19:00N 29°37' W 095°00'0 0.0
2017-Oct-16 18:30N 29°37' W 095°00'0 0.0
2017-Oct-16 18:00N 29°37' W 095°00'0 0.0
2017-Oct-16 17:30N 29°37' W 095°00'0 0.0
2017-Oct-16 17:00N 29°37' W 095°00'0 0.0
2017-Oct-16 16:30N 29°37' W 095°00'0 0.0
2017-Oct-16 15:59N 29°37' W 095°00'0 0.2
2017-Oct-16 15:30N 29°37' W 095°01'0 0.0
2017-Oct-16 15:00N 29°37' W 095°01'0 0.0
2017-Oct-16 14:30N 29°37' W 095°01'0 0.0
2017-Oct-16 13:30N 29°37' W 095°01'0 0.0
2017-Oct-16 13:00N 29°37' W 095°01'0 0.1
2017-Oct-16 12:30N 29°37' W 095°00'2 4.6
2017-Oct-16 12:00N 29°37' W 094°58'2 3.5
2017-Oct-16 11:30N 29°39' W 094°58'2 4.2
2017-Oct-16 11:00N 29°41' W 094°59'3 5.0
2017-Oct-16 10:30N 29°42' W 095°01'2 4.5
2017-Oct-16 10:00N 29°44' W 095°03'0 0.0
2017-Oct-16 00:27N 29°44' W 095°03'0 0.0
2017-Oct-15 19:20N 29°44' W 095°03'0 0.0
2017-Oct-15 18:21N 29°44' W 095°03'2 3.5
2017-Oct-15 17:40N 29°46' W 095°05'4 0.1
2017-Oct-14 10:26N 29°43' W 095°01'3 5.7
2017-Oct-14 09:58N 29°41' W 094°59'0 0.6
2017-Oct-14 09:15N 29°41' W 094°60'0 0.0
2017-Oct-14 07:50N 29°41' W 094°60'0 0.0
2017-Oct-14 07:30N 29°41' W 094°60'0 0.0
2017-Oct-14 05:46N 29°41' W 094°60'0 0.0
2017-Oct-14 05:30N 29°41' W 094°60'0 0.0
2017-Oct-14 04:56N 29°41' W 094°60'0 0.0
2017-Oct-14 04:30N 29°41' W 094°60'0 0.0
2017-Oct-14 04:00N 29°41' W 094°60'0 0.0
2017-Oct-14 03:28N 29°41' W 094°60'0 0.0
2017-Oct-14 03:00N 29°41' W 094°60'0 0.0
2017-Oct-14 02:19N 29°41' W 094°60'0 0.0
2017-Oct-14 01:56N 29°41' W 094°60'0 0.0
2017-Oct-14 01:19N 29°41' W 094°60'0 0.0
2017-Oct-14 00:50N 29°41' W 094°60'0 0.0
2017-Oct-14 00:26N 29°41' W 094°60'0 0.0
2017-Oct-13 23:45N 29°41' W 094°60'0 0.1
2017-Oct-13 23:28N 29°41' W 094°60'0 0.0
2017-Oct-13 23:00N 29°41' W 094°60'1 1.8
2017-Oct-13 22:30N 29°42' W 094°60'3 4.8
2017-Oct-13 21:51N 29°44' W 095°03'0 0.5
2017-Oct-13 21:10N 29°44' W 095°03'0 0.0
2017-Oct-13 20:51N 29°44' W 095°03'0 0.0
2017-Oct-13 19:15N 29°44' W 095°03'0 0.0
2017-Oct-13 19:00N 29°44' W 095°03'0 0.0
2017-Oct-13 18:19N 29°44' W 095°03'0 0.0
2017-Oct-13 17:55N 29°44' W 095°03'0 0.0
2017-Oct-13 16:03N 29°44' W 095°03'0 0.0
2017-Oct-13 15:53N 29°44' W 095°03'0 0.0
2017-Oct-13 15:30N 29°44' W 095°03'0 0.0
2017-Oct-13 14:57N 29°44' W 095°03'0 0.0
2017-Oct-13 14:30N 29°44' W 095°03'0 0.0
2017-Oct-13 13:56N 29°44' W 095°03'0 0.0
2017-Oct-13 13:27N 29°44' W 095°03'0 0.0
2017-Oct-13 12:42N 29°44' W 095°03'0 0.0
2017-Oct-13 11:26N 29°44' W 095°03'0 0.7
2017-Oct-13 11:00N 29°44' W 095°03'3 1.6
2017-Oct-13 08:51N 29°47' W 095°06'0 0.0
2017-Oct-13 08:31N 29°47' W 095°06'0 0.0
2017-Oct-13 06:57N 29°47' W 095°06'5 0.5
2017-Oct-12 21:49N 29°44' W 095°02'2 5.3
2017-Oct-12 21:30N 29°42' W 095°01'3 5.1
2017-Oct-12 20:55N 29°40' W 094°59'3 6.3
2017-Oct-12 20:31N 29°38' W 094°58'3 5.1
2017-Oct-12 20:01N 29°37' W 095°00'0 0.5
2017-Oct-12 19:31N 29°37' W 095°01'0 0.0
2017-Oct-12 19:01N 29°37' W 095°01'0 0.0
2017-Oct-12 18:31N 29°37' W 095°01'0 0.0
2017-Oct-12 18:00N 29°37' W 095°01'0 0.0
2017-Oct-12 17:31N 29°37' W 095°01'0 0.0
2017-Oct-12 17:00N 29°37' W 095°01'0 0.0
2017-Oct-12 16:31N 29°37' W 095°01'0 0.0
2017-Oct-12 16:01N 29°37' W 095°01'0 0.0
2017-Oct-12 15:31N 29°37' W 095°01'0 0.0
2017-Oct-12 15:00N 29°37' W 095°01'0 0.0
2017-Oct-12 14:30N 29°37' W 095°01'0 0.0
2017-Oct-12 14:01N 29°37' W 095°01'0 0.0
2017-Oct-12 13:31N 29°37' W 095°01'0 0.0
2017-Oct-12 13:00N 29°37' W 095°01'0 0.0
2017-Oct-12 12:30N 29°37' W 095°01'0 0.0
2017-Oct-12 12:01N 29°37' W 095°01'0 0.0
2017-Oct-12 11:31N 29°37' W 095°01'0 0.0
2017-Oct-12 11:01N 29°37' W 095°01'0 0.0
2017-Oct-12 10:31N 29°37' W 095°01'0 0.0
2017-Oct-12 10:01N 29°37' W 095°01'0 0.0
2017-Oct-12 09:30N 29°37' W 095°01'0 0.0
2017-Oct-12 09:01N 29°37' W 095°01'1 2.2
2017-Oct-12 08:31N 29°37' W 094°59'2 3.7
2017-Oct-12 08:01N 29°38' W 094°58'3 5.9
2017-Oct-12 07:31N 29°41' W 094°59'4 5.3
2017-Oct-12 06:50N 29°44' W 095°02'2 4.8
2017-Oct-12 06:31N 29°44' W 095°03'2 4.4
2017-Oct-12 05:59N 29°46' W 095°05'0 0.0
2017-Oct-11 22:52N 29°46' W 095°05'3 0.1
2017-Oct-10 19:20N 29°44' W 095°03'2 5.0
2017-Oct-10 18:58N 29°43' W 095°01'2 4.4
2017-Oct-10 18:29N 29°42' W 094°59'2 4.8
2017-Oct-10 17:59N 29°39' W 094°58'3 5.4
2017-Oct-10 17:30N 29°37' W 094°58'2 4.8
2017-Oct-10 17:01N 29°37' W 095°00'0 0.0
2017-Oct-10 16:30N 29°37' W 095°00'0 0.0
2017-Oct-10 16:00N 29°37' W 095°00'0 0.0
2017-Oct-10 15:30N 29°37' W 095°00'0 0.0
2017-Oct-10 15:00N 29°37' W 095°00'0 0.2
2017-Oct-10 14:00N 29°37' W 095°00'0 0.3
2017-Oct-10 13:30N 29°37' W 095°00'0 0.0
2017-Oct-10 13:00N 29°37' W 095°00'0 0.0
2017-Oct-10 12:30N 29°37' W 095°00'0 0.1
2017-Oct-10 12:00N 29°37' W 095°00'0 0.5
2017-Oct-10 11:31N 29°37' W 095°00'0 0.0
2017-Oct-10 11:00N 29°37' W 095°00'0 0.0
2017-Oct-10 10:30N 29°37' W 095°00'0 0.0
2017-Oct-10 10:00N 29°37' W 095°00'0 0.0
2017-Oct-10 09:31N 29°37' W 095°00'0 0.0
2017-Oct-10 09:00N 29°37' W 095°00'0 0.0
2017-Oct-10 08:31N 29°37' W 095°00'0 0.0
2017-Oct-10 08:00N 29°37' W 095°00'0 0.0
2017-Oct-10 07:30N 29°37' W 095°00'0 0.0
2017-Oct-10 07:00N 29°37' W 095°00'0 0.4
2017-Oct-10 06:30N 29°37' W 095°00'0 0.0
2017-Oct-10 06:01N 29°37' W 095°00'0 0.0
2017-Oct-10 05:31N 29°37' W 095°00'0 0.0
2017-Oct-10 05:01N 29°37' W 095°00'0 0.0
2017-Oct-10 04:30N 29°37' W 095°00'0 0.0
2017-Oct-10 04:01N 29°37' W 095°00'0 0.0
2017-Oct-10 03:31N 29°37' W 095°00'0 0.0
2017-Oct-10 03:00N 29°37' W 095°00'0 0.0
2017-Oct-10 02:31N 29°37' W 095°00'0 0.0
2017-Oct-10 02:01N 29°37' W 095°00'0 0.0
2017-Oct-10 01:30N 29°37' W 095°00'0 0.0
2017-Oct-10 01:00N 29°37' W 095°00'0 0.0
2017-Oct-10 00:31N 29°37' W 095°00'0 0.0
2017-Oct-10 00:00N 29°37' W 095°00'0 0.0
2017-Oct-09 23:30N 29°37' W 095°00'0 0.0
2017-Oct-09 23:00N 29°37' W 095°00'0 0.0
2017-Oct-09 22:31N 29°37' W 095°00'0 0.0
2017-Oct-09 22:00N 29°37' W 095°00'0 0.0
2017-Oct-09 21:31N 29°37' W 095°00'0 0.0
2017-Oct-09 21:00N 29°37' W 095°00'0 0.0
2017-Oct-09 20:30N 29°37' W 095°00'0 0.4
2017-Oct-09 20:00N 29°37' W 095°01'  
Track history (hours):
 
Tides and Currents Weather Stations Pressure Air Temp Water Temp Dewpoint Dewpoint Depression Visibility Wind Speed Wind Dir Waves Ship Positions

San Carmen

Owner: BUFFALO MARINE SERVICE INC, HOUSTON, TX. More information available from US FCC via Universal Licensing System and Coast Guard Vessel Documentation Center.

Last reported at 2017-Oct-19 19:31 UTC. Time now 2017-Oct-20 04:59 UTC.
Position N 29°44' W 095°02'.

Length 20 m; draft 2.1 m.

Type: Tug. MMSI: 366941810.

Date/timePositionNaut miles runAvg speedWind from/ knotsBaromVisibWave heightAir tempDewpointWater temp
2017-Oct-19 19:31N 29°44' W 095°02'1 5.8
2017-Oct-19 19:24N 29°43' W 095°01'2 5.3
2017-Oct-19 19:00N 29°42' W 094°59'4 6.1
2017-Oct-19 18:24N 29°38' W 094°58'2 4.1
2017-Oct-19 18:01N 29°37' W 094°59'2 3.1
2017-Oct-19 17:31N 29°37' W 095°00'0 0.0
2017-Oct-19 17:01N 29°37' W 095°00'0 0.0
2017-Oct-19 16:30N 29°37' W 095°00'0 0.0
2017-Oct-19 16:01N 29°37' W 095°00'0 0.0
2017-Oct-19 15:31N 29°37' W 095°00'0 0.0
2017-Oct-19 15:01N 29°37' W 095°00'0 0.0
2017-Oct-19 14:31N 29°37' W 095°00'0 0.0
2017-Oct-19 14:01N 29°37' W 095°00'0 0.0
2017-Oct-19 13:31N 29°37' W 095°00'0 0.0
2017-Oct-19 13:00N 29°37' W 095°00'0 0.0
2017-Oct-19 12:31N 29°37' W 095°00'0 0.5
2017-Oct-19 12:00N 29°37' W 095°00'0 0.2
2017-Oct-19 11:31N 29°37' W 094°60'0 0.1
2017-Oct-19 11:00N 29°37' W 095°00'0 0.0
2017-Oct-19 10:31N 29°37' W 095°00'0 0.0
2017-Oct-19 10:00N 29°37' W 095°00'0 0.0
2017-Oct-19 09:30N 29°37' W 095°00'0 0.0
2017-Oct-19 09:01N 29°37' W 095°00'0 0.0
2017-Oct-19 08:31N 29°37' W 095°00'0 0.0
2017-Oct-19 08:00N 29°37' W 095°00'0 0.0
2017-Oct-19 07:30N 29°37' W 095°00'0 0.0
2017-Oct-19 07:00N 29°37' W 095°00'0 0.0
2017-Oct-19 06:30N 29°37' W 095°00'0 0.1
2017-Oct-19 06:00N 29°37' W 095°00'0 0.8
2017-Oct-19 05:30N 29°37' W 095°01'0 0.0
2017-Oct-19 05:00N 29°37' W 095°01'0 0.0
2017-Oct-19 04:30N 29°37' W 095°01'0 0.0
2017-Oct-19 04:00N 29°37' W 095°01'0 0.0
2017-Oct-19 03:30N 29°37' W 095°01'0 0.0
2017-Oct-19 03:00N 29°37' W 095°01'0 0.0
2017-Oct-19 02:30N 29°37' W 095°01'0 0.0
2017-Oct-19 02:01N 29°37' W 095°01'0 0.0
2017-Oct-19 01:30N 29°37' W 095°01'0 0.0
2017-Oct-19 01:00N 29°37' W 095°01'0 0.0
2017-Oct-19 00:31N 29°37' W 095°01'0 0.0
2017-Oct-19 00:00N 29°37' W 095°01'0 0.0
2017-Oct-18 23:30N 29°37' W 095°01'0 0.0
2017-Oct-18 23:00N 29°37' W 095°01'0 0.0
2017-Oct-18 22:31N 29°37' W 095°01'0 0.0
2017-Oct-18 22:00N 29°37' W 095°01'0 0.0
2017-Oct-18 21:30N 29°37' W 095°01'0 0.0
2017-Oct-18 21:00N 29°37' W 095°01'0 0.0
2017-Oct-18 20:30N 29°37' W 095°01'0 0.0
2017-Oct-18 20:01N 29°37' W 095°01'0 0.0
2017-Oct-18 19:30N 29°37' W 095°01'0 0.0
2017-Oct-18 19:00N 29°37' W 095°01'0 0.0
2017-Oct-18 18:31N 29°37' W 095°01'0 0.0
2017-Oct-18 18:00N 29°37' W 095°01'0 0.0
2017-Oct-18 17:30N 29°37' W 095°01'0 0.0
2017-Oct-18 17:00N 29°37' W 095°01'0 0.0
2017-Oct-18 16:30N 29°37' W 095°01'0 0.8
2017-Oct-18 16:00N 29°37' W 095°00'1 1.1
2017-Oct-18 15:30N 29°37' W 094°59'1 2.8
2017-Oct-18 14:59N 29°37' W 094°58'4 3.6
2017-Oct-18 14:00N 29°40' W 094°59'3 5.5
2017-Oct-18 13:30N 29°42' W 095°01'2 4.8
2017-Oct-18 13:00N 29°44' W 095°03'3 5.3
2017-Oct-18 12:30N 29°46' W 095°05'1 1.5
2017-Oct-18 11:46N 29°47' W 095°06'0 0.0
2017-Oct-18 05:13N 29°47' W 095°06'1 0.2
2017-Oct-17 23:16N 29°46' W 095°05'1 0.0
2017-Oct-17 05:28N 29°46' W 095°06'1 2.5
2017-Oct-17 04:57N 29°46' W 095°05'3 5.3
2017-Oct-17 04:28N 29°44' W 095°03'2 4.7
2017-Oct-17 04:00N 29°42' W 095°01'3 5.0
2017-Oct-17 03:26N 29°40' W 094°59'3 5.8
2017-Oct-17 03:00N 29°38' W 094°58'2 3.5
2017-Oct-17 02:30N 29°37' W 094°59'1 2.1
2017-Oct-17 02:00N 29°37' W 095°00'0 0.0
2017-Oct-17 01:30N 29°37' W 095°00'0 0.0
2017-Oct-17 01:00N 29°37' W 095°00'0 0.0
2017-Oct-17 00:30N 29°37' W 095°00'0 0.0
2017-Oct-17 00:00N 29°37' W 095°00'0 0.0
2017-Oct-16 23:30N 29°37' W 095°00'0 0.0
2017-Oct-16 23:00N 29°37' W 095°00'0 0.0
2017-Oct-16 22:30N 29°37' W 095°00'0 0.0
2017-Oct-16 22:00N 29°37' W 095°00'0 0.0
2017-Oct-16 21:30N 29°37' W 095°00'0 0.0
2017-Oct-16 21:00N 29°37' W 095°00'0 0.0
2017-Oct-16 20:30N 29°37' W 095°00'0 0.0
2017-Oct-16 20:00N 29°37' W 095°00'0 0.0
2017-Oct-16 19:30N 29°37' W 095°00'0 0.0
2017-Oct-16 19:00N 29°37' W 095°00'0 0.0
2017-Oct-16 18:30N 29°37' W 095°00'0 0.0
2017-Oct-16 18:00N 29°37' W 095°00'0 0.0
2017-Oct-16 17:30N 29°37' W 095°00'0 0.0
2017-Oct-16 17:00N 29°37' W 095°00'0 0.0
2017-Oct-16 16:30N 29°37' W 095°00'0 0.0
2017-Oct-16 15:59N 29°37' W 095°00'0 0.2
2017-Oct-16 15:30N 29°37' W 095°01'0 0.0
2017-Oct-16 15:00N 29°37' W 095°01'0 0.0
2017-Oct-16 14:30N 29°37' W 095°01'0 0.0
2017-Oct-16 13:30N 29°37' W 095°01'0 0.0
2017-Oct-16 13:00N 29°37' W 095°01'0 0.1
2017-Oct-16 12:30N 29°37' W 095°00'2 4.6
2017-Oct-16 12:00N 29°37' W 094°58'2 3.5
2017-Oct-16 11:30N 29°39' W 094°58'2 4.2
2017-Oct-16 11:00N 29°41' W 094°59'3 5.0
2017-Oct-16 10:30N 29°42' W 095°01'2 4.5
2017-Oct-16 10:00N 29°44' W 095°03'0 0.0
2017-Oct-16 00:27N 29°44' W 095°03'0 0.0
2017-Oct-15 19:20N 29°44' W 095°03'0 0.0
2017-Oct-15 18:21N 29°44' W 095°03'2 3.5
2017-Oct-15 17:40N 29°46' W 095°05'4 0.1
2017-Oct-14 10:26N 29°43' W 095°01'3 5.7
2017-Oct-14 09:58N 29°41' W 094°59'0 0.6
2017-Oct-14 09:15N 29°41' W 094°60'0 0.0
2017-Oct-14 07:50N 29°41' W 094°60'0 0.0
2017-Oct-14 07:30N 29°41' W 094°60'0 0.0
2017-Oct-14 05:46N 29°41' W 094°60'0 0.0
2017-Oct-14 05:30N 29°41' W 094°60'0 0.0
2017-Oct-14 04:56N 29°41' W 094°60'0 0.0
2017-Oct-14 04:30N 29°41' W 094°60'0 0.0
2017-Oct-14 04:00N 29°41' W 094°60'0 0.0
2017-Oct-14 03:28N 29°41' W 094°60'0 0.0
2017-Oct-14 03:00N 29°41' W 094°60'0 0.0
2017-Oct-14 02:19N 29°41' W 094°60'0 0.0
2017-Oct-14 01:56N 29°41' W 094°60'0 0.0
2017-Oct-14 01:19N 29°41' W 094°60'0 0.0
2017-Oct-14 00:50N 29°41' W 094°60'0 0.0
2017-Oct-14 00:26N 29°41' W 094°60'0 0.0
2017-Oct-13 23:45N 29°41' W 094°60'0 0.1
2017-Oct-13 23:28N 29°41' W 094°60'0 0.0
2017-Oct-13 23:00N 29°41' W 094°60'1 1.8
2017-Oct-13 22:30N 29°42' W 094°60'3 4.8
2017-Oct-13 21:51N 29°44' W 095°03'0 0.5
2017-Oct-13 21:10N 29°44' W 095°03'0 0.0
2017-Oct-13 20:51N 29°44' W 095°03'0 0.0
2017-Oct-13 19:15N 29°44' W 095°03'0 0.0
2017-Oct-13 19:00N 29°44' W 095°03'0 0.0
2017-Oct-13 18:19N 29°44' W 095°03'0 0.0
2017-Oct-13 17:55N 29°44' W 095°03'0 0.0
2017-Oct-13 16:03N 29°44' W 095°03'0 0.0
2017-Oct-13 15:53N 29°44' W 095°03'0 0.0
2017-Oct-13 15:30N 29°44' W 095°03'0 0.0
2017-Oct-13 14:57N 29°44' W 095°03'0 0.0
2017-Oct-13 14:30N 29°44' W 095°03'0 0.0
2017-Oct-13 13:56N 29°44' W 095°03'0 0.0
2017-Oct-13 13:27N 29°44' W 095°03'0 0.0
2017-Oct-13 12:42N 29°44' W 095°03'0 0.0
2017-Oct-13 11:26N 29°44' W 095°03'0 0.7
2017-Oct-13 11:00N 29°44' W 095°03'3 1.6
2017-Oct-13 08:51N 29°47' W 095°06'0 0.0
2017-Oct-13 08:31N 29°47' W 095°06'0 0.0
2017-Oct-13 06:57N 29°47' W 095°06'5 0.5
2017-Oct-12 21:49N 29°44' W 095°02'2 5.3
2017-Oct-12 21:30N 29°42' W 095°01'3 5.1
2017-Oct-12 20:55N 29°40' W 094°59'3 6.3
2017-Oct-12 20:31N 29°38' W 094°58'3 5.1
2017-Oct-12 20:01N 29°37' W 095°00'0 0.5
2017-Oct-12 19:31N 29°37' W 095°01'0 0.0
2017-Oct-12 19:01N 29°37' W 095°01'0 0.0
2017-Oct-12 18:31N 29°37' W 095°01'0 0.0
2017-Oct-12 18:00N 29°37' W 095°01'0 0.0
2017-Oct-12 17:31N 29°37' W 095°01'0 0.0
2017-Oct-12 17:00N 29°37' W 095°01'0 0.0
2017-Oct-12 16:31N 29°37' W 095°01'0 0.0
2017-Oct-12 16:01N 29°37' W 095°01'0 0.0
2017-Oct-12 15:31N 29°37' W 095°01'0 0.0
2017-Oct-12 15:00N 29°37' W 095°01'0 0.0
2017-Oct-12 14:30N 29°37' W 095°01'0 0.0
2017-Oct-12 14:01N 29°37' W 095°01'0 0.0
2017-Oct-12 13:31N 29°37' W 095°01'0 0.0
2017-Oct-12 13:00N 29°37' W 095°01'0 0.0
2017-Oct-12 12:30N 29°37' W 095°01'0 0.0
2017-Oct-12 12:01N 29°37' W 095°01'0 0.0
2017-Oct-12 11:31N 29°37' W 095°01'0 0.0
2017-Oct-12 11:01N 29°37' W 095°01'0 0.0
2017-Oct-12 10:31N 29°37' W 095°01'0 0.0
2017-Oct-12 10:01N 29°37' W 095°01'0 0.0
2017-Oct-12 09:30N 29°37' W 095°01'0 0.0
2017-Oct-12 09:01N 29°37' W 095°01'1 2.2
2017-Oct-12 08:31N 29°37' W 094°59'2 3.7
2017-Oct-12 08:01N 29°38' W 094°58'3 5.9
2017-Oct-12 07:31N 29°41' W 094°59'4 5.3
2017-Oct-12 06:50N 29°44' W 095°02'2 4.8
2017-Oct-12 06:31N 29°44' W 095°03'2 4.4
2017-Oct-12 05:59N 29°46' W 095°05'0 0.0
2017-Oct-11 22:52N 29°46' W 095°05'3 0.1
2017-Oct-10 19:20N 29°44' W 095°03'2 5.0
2017-Oct-10 18:58N 29°43' W 095°01'2 4.4
2017-Oct-10 18:29N 29°42' W 094°59'2 4.8
2017-Oct-10 17:59N 29°39' W 094°58'3 5.4
2017-Oct-10 17:30N 29°37' W 094°58'2 4.8
2017-Oct-10 17:01N 29°37' W 095°00'0 0.0
2017-Oct-10 16:30N 29°37' W 095°00'0 0.0
2017-Oct-10 16:00N 29°37' W 095°00'0 0.0
2017-Oct-10 15:30N 29°37' W 095°00'0 0.0
2017-Oct-10 15:00N 29°37' W 095°00'0 0.2
2017-Oct-10 14:00N 29°37' W 095°00'0 0.3
2017-Oct-10 13:30N 29°37' W 095°00'0 0.0
2017-Oct-10 13:00N 29°37' W 095°00'0 0.0
2017-Oct-10 12:30N 29°37' W 095°00'0 0.1
2017-Oct-10 12:00N 29°37' W 095°00'0 0.5
2017-Oct-10 11:31N 29°37' W 095°00'0 0.0
2017-Oct-10 11:00N 29°37' W 095°00'0 0.0
2017-Oct-10 10:30N 29°37' W 095°00'0 0.0
2017-Oct-10 10:00N 29°37' W 095°00'0 0.0
2017-Oct-10 09:31N 29°37' W 095°00'0 0.0
2017-Oct-10 09:00N 29°37' W 095°00'0 0.0
2017-Oct-10 08:31N 29°37' W 095°00'0 0.0
2017-Oct-10 08:00N 29°37' W 095°00'0 0.0
2017-Oct-10 07:30N 29°37' W 095°00'0 0.0
2017-Oct-10 07:00N 29°37' W 095°00'0 0.4
2017-Oct-10 06:30N 29°37' W 095°00'0 0.0
2017-Oct-10 06:01N 29°37' W 095°00'0 0.0
2017-Oct-10 05:31N 29°37' W 095°00'0 0.0
2017-Oct-10 05:01N 29°37' W 095°00'0 0.0
2017-Oct-10 04:30N 29°37' W 095°00'0 0.0
2017-Oct-10 04:01N 29°37' W 095°00'0 0.0
2017-Oct-10 03:31N 29°37' W 095°00'0 0.0
2017-Oct-10 03:00N 29°37' W 095°00'0 0.0
2017-Oct-10 02:31N 29°37' W 095°00'0 0.0
2017-Oct-10 02:01N 29°37' W 095°00'0 0.0
2017-Oct-10 01:30N 29°37' W 095°00'0 0.0
2017-Oct-10 01:00N 29°37' W 095°00'0 0.0
2017-Oct-10 00:31N 29°37' W 095°00'0 0.0
2017-Oct-10 00:00N 29°37' W 095°00'0 0.0
2017-Oct-09 23:30N 29°37' W 095°00'0 0.0
2017-Oct-09 23:00N 29°37' W 095°00'0 0.0
2017-Oct-09 22:31N 29°37' W 095°00'0 0.0
2017-Oct-09 22:00N 29°37' W 095°00'0 0.0
2017-Oct-09 21:31N 29°37' W 095°00'0 0.0
2017-Oct-09 21:00N 29°37' W 095°00'0 0.0
2017-Oct-09 20:30N 29°37' W 095°00'0 0.4
2017-Oct-09 20:00N 29°37' W 095°01'  

Dump ship's entire track history